Weather at Málaga-Costa del Sol Airport

Public forecast

Using degrees Celsius for public forecast. Weather courtesy of forecast.io.

Current aviation weather report (METAR) for Málaga-Costa del Sol Airport

2024/05/20 22:30 (retrieved 17 minutes ago)

LEMG 202230Z 29009KT CAVOK 19/08 Q1015 NOSIG

Aviation forecast (TAF) for Málaga-Costa del Sol Airport

2024/05/20 18:27 (retrieved 4 hours ago)

TAF LEMG 201700Z 2018/2118 30008KT CAVOK TX26/2114Z TN17/2106Z PROB40 TEMPO 2114/2118 23010KT